createdAt,value
2019-01-18T00:01:58.467Z,98153.62
2019-01-18T00:04:09.283Z,98154.00
2019-01-18T00:06:20.103Z,98152.79
2019-01-18T00:08:30.909Z,98161.18
2019-01-18T00:10:41.739Z,98162.39
2019-01-18T00:12:52.529Z,98162.13
2019-01-18T00:15:25.123Z,98166.30
2019-01-18T00:17:35.933Z,98163.34
2019-01-18T00:19:46.751Z,98167.56
2019-01-18T00:21:57.558Z,98170.14
2019-01-18T00:24:08.342Z,98167.09
2019-01-18T00:26:19.154Z,98163.20
2019-01-18T00:28:29.958Z,98167.86
2019-01-18T00:30:40.787Z,98168.94
2019-01-18T00:32:51.714Z,98165.02
2019-01-18T00:35:44.179Z,98174.00
2019-01-18T00:37:55.063Z,98176.41
2019-01-18T00:40:25.735Z,98178.98
2019-01-18T00:42:37.502Z,98177.20
2019-01-18T00:44:49.304Z,98183.20
2019-01-18T00:47:00.106Z,98188.25
2019-01-18T00:49:10.906Z,98189.22
2019-01-18T00:51:21.724Z,98190.74
2019-01-18T00:53:32.524Z,98193.45
2019-01-18T00:55:43.380Z,98194.27
2019-01-18T00:57:54.172Z,98204.45
2019-01-18T01:00:46.630Z,98201.90
2019-01-18T01:02:57.452Z,98209.21
2019-01-18T01:05:49.925Z,98211.31
2019-01-18T01:08:00.840Z,98217.12
2019-01-18T01:10:11.725Z,98214.41
2019-01-18T01:12:22.699Z,98220.31
2019-01-18T01:14:33.563Z,98225.05
2019-01-18T01:16:44.381Z,98227.55
2019-01-18T01:18:55.173Z,98234.48
2019-01-18T01:21:05.970Z,98236.20
2019-01-18T01:23:16.886Z,98233.88
2019-01-18T01:25:27.689Z,98238.30
2019-01-18T01:28:20.167Z,98241.25
2019-01-18T01:30:30.954Z,98242.59
2019-01-18T01:32:41.859Z,98246.75
2019-01-18T01:34:52.676Z,98248.42
2019-01-18T01:37:03.473Z,98248.36
2019-01-18T01:39:14.290Z,98260.34
2019-01-18T01:41:25.095Z,98268.34
2019-01-18T01:43:35.909Z,98264.48
2019-01-18T01:45:46.816Z,98275.12
2019-01-18T01:47:57.650Z,98272.55
2019-01-18T01:50:28.308Z,98274.73
2019-01-18T01:52:39.103Z,98272.95
2019-01-18T01:54:50.034Z,98276.40
2019-01-18T01:57:00.819Z,98282.36
2019-01-18T01:59:11.632Z,98275.12
2019-01-18T02:01:22.418Z,98279.45
2019-01-18T02:03:33.246Z,98283.38
2019-01-18T02:05:44.050Z,98284.16
2019-01-18T02:07:54.841Z,98289.21
2019-01-18T02:10:47.458Z,98291.38
2019-01-18T02:12:58.250Z,98293.37
2019-01-18T02:15:50.698Z,98299.02
2019-01-18T02:18:01.499Z,98299.06
2019-01-18T02:20:53.951Z,98297.39
2019-01-18T02:23:04.758Z,98295.25
2019-01-18T02:25:15.671Z,98305.80
2019-01-18T02:27:26.474Z,98309.17
2019-01-18T02:29:37.261Z,98312.14
2019-01-18T02:31:48.081Z,98315.65
2019-01-18T02:33:58.885Z,98320.20
2019-01-18T02:36:09.693Z,98314.44
2019-01-18T02:38:20.485Z,98314.44
2019-01-18T02:40:31.298Z,98309.78
2019-01-18T02:43:03.856Z,98326.51
2019-01-18T02:45:56.322Z,98323.16
2019-01-18T02:48:07.114Z,98329.33
2019-01-18T02:50:18.238Z,98325.79
2019-01-18T02:52:29.050Z,98326.55
2019-01-18T02:54:39.862Z,98328.72
2019-01-18T02:56:50.669Z,98326.51
2019-01-18T02:59:01.469Z,98328.21
2019-01-18T03:01:12.255Z,98337.06
2019-01-18T03:03:23.065Z,98335.33
2019-01-18T03:05:33.910Z,98335.33
2019-01-18T03:07:44.814Z,98340.51
2019-01-18T03:09:55.618Z,98337.89
2019-01-18T03:12:06.430Z,98339.62
2019-01-18T03:14:17.231Z,98349.03
2019-01-18T03:16:28.082Z,98345.20
2019-01-18T03:18:38.854Z,98345.70
2019-01-18T03:20:49.712Z,98349.41
2019-01-18T03:23:00.510Z,98349.81
2019-01-18T03:25:52.956Z,98359.23
2019-01-18T03:28:03.784Z,98362.28
2019-01-18T03:30:36.348Z,98359.28
2019-01-18T03:32:47.178Z,98364.41
2019-01-18T03:34:57.963Z,98366.71
2019-01-18T03:37:08.772Z,98368.83
2019-01-18T03:39:19.603Z,98376.00
2019-01-18T03:41:30.497Z,98372.98
2019-01-18T03:43:41.316Z,98369.29
2019-01-18T03:45:52.114Z,98367.66
2019-01-18T03:48:03.133Z,98379.20
2019-01-18T03:50:55.591Z,98385.67
2019-01-18T03:53:06.398Z,98387.84
2019-01-18T03:55:17.615Z,98389.97
2019-01-18T03:57:28.512Z,98392.20
2019-01-18T03:59:39.337Z,98394.30
2019-01-18T04:01:50.119Z,98397.70
2019-01-18T04:04:01.069Z,98400.50
2019-01-18T04:06:11.866Z,98402.58
2019-01-18T04:08:22.683Z,98404.34
2019-01-18T04:10:33.580Z,98402.25
2019-01-18T04:12:44.575Z,98404.80
2019-01-18T04:14:55.396Z,98406.15
2019-01-18T04:17:06.200Z,98397.17
2019-01-18T04:19:16.993Z,98405.23
2019-01-18T04:21:27.804Z,98404.92
2019-01-18T04:23:38.605Z,98412.55
2019-01-18T04:25:49.516Z,98410.14
2019-01-18T04:28:00.317Z,98414.78
2019-01-18T04:30:33.776Z,98418.27
2019-01-18T04:32:44.709Z,98414.05
2019-01-18T04:34:55.523Z,98417.34
2019-01-18T04:37:06.322Z,98422.00
2019-01-18T04:39:17.113Z,98420.33
2019-01-18T04:41:27.930Z,98423.28
2019-01-18T04:43:38.725Z,98431.30
2019-01-18T04:45:49.545Z,98427.02
2019-01-18T04:48:00.361Z,98426.50
2019-01-18T04:50:52.838Z,98433.73
2019-01-18T04:53:03.727Z,98435.92
2019-01-18T04:55:56.207Z,98443.22
2019-01-18T04:58:07.002Z,98447.49
2019-01-18T05:00:59.458Z,98448.67
2019-01-18T05:03:10.255Z,98453.89
2019-01-18T05:05:21.150Z,98455.58
2019-01-18T05:09:54.083Z,98460.08
2019-01-18T05:12:04.896Z,98467.81
2019-01-18T05:14:15.699Z,98467.03
2019-01-18T05:18:45.565Z,98476.78
2019-01-18T05:21:16.265Z,98484.41
2019-01-18T05:23:27.072Z,98484.41
2019-01-18T05:25:37.871Z,98483.12
2019-01-18T05:27:48.702Z,98490.75
2019-01-18T05:29:59.500Z,98492.81
2019-01-18T05:32:10.357Z,98497.89
2019-01-18T05:34:21.163Z,98499.17
2019-01-18T05:36:31.975Z,98502.22
2019-01-18T05:38:42.796Z,98507.01
2019-01-18T05:40:53.702Z,98506.56
2019-01-18T05:43:04.526Z,98509.52
2019-01-18T05:45:56.978Z,98506.41
2019-01-18T05:48:07.788Z,98510.64
2019-01-18T05:51:00.230Z,98518.33
2019-01-18T05:53:11.447Z,98521.83
2019-01-18T05:55:22.370Z,98525.10
2019-01-18T05:57:33.170Z,98533.12
2019-01-18T05:59:44.000Z,98535.63
2019-01-18T06:01:54.886Z,98542.81
2019-01-18T06:06:24.684Z,98540.83
2019-01-18T06:08:35.511Z,98544.27
2019-01-18T06:10:46.332Z,98543.44
2019-01-18T06:12:57.141Z,98544.38
2019-01-18T06:15:49.612Z,98541.77
2019-01-18T06:18:00.413Z,98542.22
2019-01-18T06:20:52.862Z,98553.92
2019-01-18T06:23:03.659Z,98544.36
2019-01-18T06:25:14.591Z,98544.05
2019-01-18T06:27:25.380Z,98555.73
2019-01-18T06:29:36.205Z,98557.52
2019-01-18T06:31:46.995Z,98564.05
2019-01-18T06:33:57.819Z,98568.84
2019-01-18T06:36:08.633Z,98568.11
2019-01-18T06:38:19.436Z,98571.01
2019-01-18T06:40:30.345Z,98574.02
2019-01-18T06:42:41.141Z,98575.23
2019-01-18T06:44:51.945Z,98582.14
2019-01-18T06:47:02.750Z,98583.52
2019-01-18T06:51:46.132Z,98588.92
2019-01-18T06:53:56.917Z,98598.80
2019-01-18T06:56:07.929Z,98597.95
2019-01-18T06:58:18.836Z,98600.72
2019-01-18T07:01:11.289Z,98608.56
2019-01-18T07:03:22.101Z,98605.98
2019-01-18T07:05:32.910Z,98611.70
2019-01-18T07:07:43.806Z,98609.69
2019-01-18T07:09:54.633Z,98613.14
2019-01-18T07:12:05.431Z,98615.25
2019-01-18T07:14:16.268Z,98618.25
2019-01-18T07:16:27.077Z,98620.72
2019-01-18T07:18:37.870Z,98622.44
2019-01-18T07:20:48.688Z,98628.01
2019-01-18T07:22:59.490Z,98634.81
2019-01-18T07:25:51.963Z,98637.80
2019-01-18T07:28:02.852Z,98639.04
2019-01-18T07:30:34.578Z,98640.95
2019-01-18T07:32:45.389Z,98638.00
2019-01-18T07:34:56.181Z,98648.77
2019-01-18T07:37:06.990Z,98656.84
2019-01-18T07:39:22.300Z,98652.52
2019-01-18T07:43:49.417Z,98656.80
2019-01-18T07:46:00.321Z,98656.26
2019-01-18T07:48:11.132Z,98658.38
2019-01-18T07:50:21.928Z,98661.24
2019-01-18T07:52:32.863Z,98673.30
2019-01-18T07:54:43.685Z,98669.33
2019-01-18T07:56:54.470Z,98671.39
2019-01-18T07:59:05.289Z,98672.67
2019-01-18T08:01:21.887Z,98677.30
2019-01-18T08:03:28.949Z,98685.30
2019-01-18T08:05:39.735Z,98685.19
2019-01-18T08:07:50.755Z,98681.65
2019-01-18T08:12:53.902Z,98677.27
2019-01-18T08:15:46.346Z,98683.36
2019-01-18T08:17:57.263Z,98683.36
2019-01-18T08:20:49.709Z,98682.94
2019-01-18T08:23:00.540Z,98687.21
2019-01-18T08:25:52.983Z,98694.76
2019-01-18T08:28:03.991Z,98693.86
2019-01-18T08:30:56.438Z,98703.13
2019-01-18T08:33:07.269Z,98702.97
2019-01-18T08:35:59.736Z,98707.36
2019-01-18T08:38:10.552Z,98713.37
2019-01-18T08:40:41.258Z,98716.19
2019-01-18T08:42:52.052Z,98716.55
2019-01-18T08:45:44.504Z,98723.53
2019-01-18T08:47:55.299Z,98724.02
2019-01-18T08:50:27.912Z,98728.77
2019-01-18T08:52:38.810Z,98729.99
2019-01-18T08:54:49.719Z,98729.16
2019-01-18T08:57:00.565Z,98730.38
2019-01-18T08:59:11.388Z,98735.41
2019-01-18T09:01:22.278Z,98731.07
2019-01-18T09:03:33.177Z,98732.66
2019-01-18T09:05:43.995Z,98736.84
2019-01-18T09:07:55.346Z,98736.44
2019-01-18T09:10:49.185Z,98747.97
2019-01-18T09:12:59.981Z,98743.75
2019-01-18T09:15:52.450Z,98748.66
2019-01-18T09:18:44.888Z,98745.31
2019-01-18T09:20:55.712Z,98748.38
2019-01-18T09:23:06.508Z,98758.13
2019-01-18T09:25:17.461Z,98764.09
2019-01-18T09:27:28.243Z,98761.22
2019-01-18T09:29:39.050Z,98760.78
2019-01-18T09:31:49.960Z,98764.23
2019-01-18T09:34:00.851Z,98766.34
2019-01-18T09:36:11.780Z,98773.98
2019-01-18T09:38:22.573Z,98779.91
2019-01-18T09:40:33.500Z,98786.37
2019-01-18T09:42:44.321Z,98786.41
2019-01-18T09:44:55.120Z,98788.87
2019-01-18T09:47:13.284Z,98794.31
2019-01-18T09:49:24.072Z,98795.55
2019-01-18T09:51:34.886Z,98795.94
2019-01-18T09:53:45.712Z,98788.91
2019-01-18T09:55:56.541Z,98791.02
2019-01-18T09:58:07.347Z,98791.71
2019-01-18T10:00:59.801Z,98787.41
2019-01-18T10:03:10.707Z,98787.47
2019-01-18T10:05:21.612Z,98787.36
2019-01-18T10:07:32.446Z,98790.17
2019-01-18T10:09:43.245Z,98794.85
2019-01-18T10:11:54.066Z,98792.19
2019-01-18T10:14:04.849Z,98788.29
2019-01-18T10:16:15.777Z,98787.75
2019-01-18T10:18:26.693Z,98777.62
2019-01-18T10:20:37.487Z,98777.62
2019-01-18T10:23:30.022Z,98781.05
2019-01-18T10:25:41.058Z,98782.72
2019-01-18T10:27:51.889Z,98781.44
2019-01-18T10:30:44.448Z,98777.43
2019-01-18T10:32:55.254Z,98770.56
2019-01-18T10:35:06.168Z,98771.45
2019-01-18T10:37:17.065Z,98765.22
2019-01-18T10:39:27.890Z,98767.95
2019-01-18T10:41:38.715Z,98770.80
2019-01-18T10:43:49.531Z,98764.82
2019-01-18T10:46:00.322Z,98768.28
2019-01-18T10:48:11.140Z,98766.78
2019-01-18T10:50:41.805Z,98761.30
2019-01-18T10:52:52.745Z,98768.95
2019-01-18T10:55:45.171Z,98762.03
2019-01-18T10:57:56.093Z,98768.56
2019-01-18T11:00:48.551Z,98769.72
2019-01-18T11:02:59.492Z,98759.08
2019-01-18T11:05:51.955Z,98756.89
2019-01-18T11:08:02.890Z,98762.42
2019-01-18T11:10:35.449Z,98760.80
2019-01-18T11:12:46.446Z,98765.61
2019-01-18T11:14:57.262Z,98765.17
2019-01-18T11:17:08.070Z,98760.92
2019-01-18T11:19:18.886Z,98760.31
2019-01-18T11:21:29.839Z,98758.23
2019-01-18T11:23:40.844Z,98755.05
2019-01-18T11:25:51.699Z,98749.27
2019-01-18T11:28:44.193Z,98750.77
2019-01-18T11:30:54.985Z,98750.32
2019-01-18T11:33:05.797Z,98752.42
2019-01-18T11:35:58.259Z,98753.46
2019-01-18T11:38:09.061Z,98755.30
2019-01-18T11:41:01.520Z,98753.84
2019-01-18T11:43:12.375Z,98752.45
2019-01-18T11:45:23.185Z,98753.71
2019-01-18T11:47:33.999Z,98749.48
2019-01-18T11:49:44.826Z,98750.83
2019-01-18T11:51:55.621Z,98746.58
2019-01-18T11:54:06.409Z,98746.07
2019-01-18T11:56:17.265Z,98747.23
2019-01-18T11:58:28.051Z,98739.66
2019-01-18T12:00:38.929Z,98741.47
2019-01-18T12:02:49.813Z,98739.52
2019-01-18T12:05:42.268Z,98736.23
2019-01-18T12:07:53.081Z,98735.39
2019-01-18T12:10:45.533Z,98731.48
2019-01-18T12:12:56.327Z,98727.59
2019-01-18T12:15:48.831Z,98732.98
2019-01-18T12:17:59.639Z,98726.44
2019-01-18T12:20:52.097Z,98727.70
2019-01-18T12:23:44.539Z,98721.34
2019-01-18T12:25:55.352Z,98727.39
2019-01-18T12:28:06.158Z,98730.86
2019-01-18T12:30:58.623Z,98725.40
2019-01-18T12:33:09.448Z,98719.75
2019-01-18T12:35:23.266Z,98722.26
2019-01-18T12:37:34.094Z,98728.72
2019-01-18T12:39:44.901Z,98727.19
2019-01-18T12:41:55.739Z,98725.97
2019-01-18T12:44:06.529Z,98725.40
2019-01-18T12:46:17.337Z,98725.47
2019-01-18T12:48:28.127Z,98722.88
2019-01-18T12:50:39.143Z,98716.30
2019-01-18T12:52:50.076Z,98721.28
2019-01-18T12:55:00.903Z,98716.28
2019-01-18T12:57:11.723Z,98716.61
2019-01-18T12:59:22.537Z,98717.52
2019-01-18T13:01:33.363Z,98719.57
2019-01-18T13:03:44.160Z,98716.09
2019-01-18T13:05:55.059Z,98718.59
2019-01-18T13:08:05.991Z,98719.30
2019-01-18T13:10:16.793Z,98712.96
2019-01-18T13:12:27.644Z,98715.65
2019-01-18T13:14:38.448Z,98706.71
2019-01-18T13:16:49.269Z,98708.86
2019-01-18T13:19:00.239Z,98709.42
2019-01-18T13:21:11.044Z,98711.09
2019-01-18T13:23:21.872Z,98706.02
2019-01-18T13:25:32.788Z,98711.92
2019-01-18T13:27:43.607Z,98708.13
2019-01-18T13:29:54.425Z,98707.31
2019-01-18T13:32:05.254Z,98709.48
2019-01-18T13:34:16.164Z,98714.63
2019-01-18T13:36:27.021Z,98713.66
2019-01-18T13:38:37.919Z,98709.37
2019-01-18T13:40:48.731Z,98718.78
2019-01-18T13:42:59.556Z,98717.19
2019-01-18T13:45:52.025Z,98718.45
2019-01-18T13:48:44.496Z,98714.30
2019-01-18T13:50:55.298Z,98716.87
2019-01-18T13:53:06.127Z,98719.17
2019-01-18T13:55:58.629Z,98729.38
2019-01-18T13:58:10.359Z,98724.36
2019-01-18T14:00:22.362Z,98723.14
2019-01-18T14:02:33.153Z,98724.05
2019-01-18T14:04:43.982Z,98722.39
2019-01-18T14:06:54.793Z,98724.05
2019-01-18T14:09:47.259Z,98720.13
2019-01-18T14:11:58.069Z,98725.14
2019-01-18T14:14:08.905Z,98727.45
2019-01-18T14:16:19.760Z,98726.51
2019-01-18T14:18:30.557Z,98725.67
2019-01-18T14:20:41.399Z,98726.56
2019-01-18T14:22:52.340Z,98721.89
2019-01-18T14:25:44.823Z,98728.82
2019-01-18T14:27:55.609Z,98722.45
2019-01-18T14:30:48.089Z,98730.17
2019-01-18T14:32:58.893Z,98727.28
2019-01-18T14:35:09.698Z,98730.42
2019-01-18T14:37:20.512Z,98728.80
2019-01-18T14:39:31.360Z,98728.46
2019-01-18T14:41:42.207Z,98731.53
2019-01-18T14:43:53.049Z,98724.67
2019-01-18T14:46:03.897Z,98726.42
2019-01-18T14:48:14.703Z,98733.72
2019-01-18T14:50:25.523Z,98730.33
2019-01-18T14:52:36.333Z,98731.28
2019-01-18T14:54:47.277Z,98729.94
2019-01-18T14:56:58.094Z,98734.34
2019-01-18T14:59:08.896Z,98733.52
2019-01-18T15:01:19.713Z,98732.30
2019-01-18T15:03:30.553Z,98732.78
2019-01-18T15:05:41.361Z,98731.08
2019-01-18T15:07:52.186Z,98730.62
2019-01-18T15:10:24.768Z,98731.41
2019-01-18T15:12:35.590Z,98734.42
2019-01-18T15:14:46.485Z,98736.53
2019-01-18T15:16:57.324Z,98730.13
2019-01-18T15:19:08.236Z,98733.56
2019-01-18T15:21:19.028Z,98741.33
2019-01-18T15:23:29.859Z,98737.05
2019-01-18T15:25:40.727Z,98737.54
2019-01-18T15:27:51.665Z,98734.92
2019-01-18T15:30:44.142Z,98728.45
2019-01-18T15:32:54.987Z,98734.86
2019-01-18T15:35:47.442Z,98735.55
2019-01-18T15:37:58.366Z,98728.91
2019-01-18T15:40:50.832Z,98730.27
2019-01-18T15:45:23.984Z,98730.82
2019-01-18T15:47:34.817Z,98736.23
2019-01-18T15:49:45.635Z,98729.41
2019-01-18T15:51:56.455Z,98736.83
2019-01-18T15:54:07.371Z,98734.02
2019-01-18T15:56:18.335Z,98729.81
2019-01-18T15:58:29.178Z,98731.28
2019-01-18T16:01:21.635Z,98731.08
2019-01-18T16:03:32.559Z,98731.25
2019-01-18T16:05:43.387Z,98733.59
2019-01-18T16:07:54.383Z,98735.71
2019-01-18T16:10:46.917Z,98733.87
2019-01-18T16:12:57.710Z,98736.19
2019-01-18T16:15:50.185Z,98735.02
2019-01-18T16:23:23.883Z,98739.80
2019-01-18T16:25:34.905Z,98737.43
2019-01-18T16:27:45.701Z,98740.56
2019-01-18T16:29:56.535Z,98744.14
2019-01-18T16:32:07.539Z,98736.95
2019-01-18T16:34:18.355Z,98734.03
2019-01-18T16:36:29.203Z,98740.12
2019-01-18T16:38:40.001Z,98743.70
2019-01-18T16:40:50.952Z,98739.94
2019-01-18T16:43:43.461Z,98738.36
2019-01-18T16:45:54.399Z,98733.79
2019-01-18T16:48:05.409Z,98731.03
2019-01-18T16:50:16.329Z,98729.03
2019-01-18T16:52:27.159Z,98735.97
2019-01-18T16:54:37.969Z,98730.97
2019-01-18T16:56:48.815Z,98733.13
2019-01-18T16:58:59.710Z,98734.00
2019-01-18T17:01:10.633Z,98729.28
2019-01-18T17:03:21.447Z,98732.35
2019-01-18T17:05:32.374Z,98730.37
2019-01-18T17:07:43.295Z,98730.91
2019-01-18T17:09:54.100Z,98727.95
2019-01-18T17:12:05.094Z,98728.75
2019-01-18T17:14:15.914Z,98724.11
2019-01-18T17:16:26.740Z,98725.08
2019-01-18T17:18:57.550Z,98726.48
2019-01-18T17:21:08.369Z,98726.48
2019-01-18T17:23:19.325Z,98729.51
2019-01-18T17:25:30.113Z,98725.70
2019-01-18T17:27:41.085Z,98722.69
2019-01-18T17:29:52.016Z,98719.66
2019-01-18T17:32:03.022Z,98721.34
2019-01-18T17:34:13.844Z,98722.69
2019-01-18T17:37:06.311Z,98719.75
2019-01-18T17:39:58.768Z,98723.65
2019-01-18T17:42:51.243Z,98721.50
2019-01-18T17:45:41.773Z,98716.88
2019-01-18T17:48:34.259Z,98717.38
2019-01-18T17:51:26.721Z,98723.80
2019-01-18T17:54:19.195Z,98714.85
2019-01-18T17:57:09.765Z,98720.86
2019-01-18T18:00:02.306Z,98720.45
2019-01-18T18:02:54.753Z,98719.58
2019-01-18T18:05:45.317Z,98717.03
2019-01-18T18:08:37.780Z,98720.83
2019-01-18T18:11:30.248Z,98717.95
2019-01-18T18:14:21.136Z,98714.98
2019-01-18T18:17:11.695Z,98723.58
2019-01-18T18:20:04.162Z,98726.16
2019-01-18T18:22:56.627Z,98726.61
2019-01-18T18:25:49.115Z,98725.74
2019-01-18T18:28:39.642Z,98727.50
2019-01-18T18:31:30.264Z,98724.16
2019-01-18T18:34:20.819Z,98726.73
2019-01-18T18:37:13.319Z,98724.59
2019-01-18T18:40:05.807Z,98716.95
2019-01-18T18:42:58.239Z,98713.92
2019-01-18T18:45:50.708Z,98714.63
2019-01-18T18:48:41.281Z,98715.09
2019-01-18T18:51:31.833Z,98707.90
2019-01-18T18:54:22.380Z,98704.98
2019-01-18T18:57:12.975Z,98706.27
2019-01-18T19:00:05.494Z,98705.02
2019-01-18T19:02:56.128Z,98699.88
2019-01-18T19:05:46.701Z,98706.23
2019-01-18T19:08:37.299Z,98692.22
2019-01-18T19:11:27.883Z,98690.51
2019-01-18T19:14:18.476Z,98692.58
2019-01-18T19:17:09.020Z,98683.64
2019-01-18T19:20:01.493Z,98678.92
2019-01-18T19:22:52.066Z,98682.69
2019-01-18T19:25:44.553Z,98679.61
2019-01-18T19:28:35.124Z,98677.88
2019-01-18T19:31:25.786Z,98677.91
2019-01-18T19:34:18.233Z,98675.44
2019-01-18T19:37:08.866Z,98671.20
2019-01-18T19:40:01.316Z,98670.30
2019-01-18T19:42:51.905Z,98677.06
2019-01-18T19:45:42.443Z,98668.47
2019-01-18T19:48:34.925Z,98673.08
2019-01-18T19:51:25.468Z,98666.29
2019-01-18T19:54:16.033Z,98665.04
2019-01-18T19:57:08.529Z,98666.26
2019-01-18T19:59:59.078Z,98662.83
2019-01-18T20:02:51.557Z,98668.81
2019-01-18T20:05:42.168Z,98667.56
2019-01-18T20:08:32.733Z,98665.45
2019-01-18T20:11:25.180Z,98665.04
2019-01-18T20:14:17.667Z,98663.80
2019-01-18T20:17:08.202Z,98665.08
2019-01-18T20:20:00.737Z,98660.77
2019-01-18T20:22:53.200Z,98659.09
2019-01-18T20:25:43.791Z,98659.94
2019-01-18T20:28:36.281Z,98650.99
2019-01-18T20:31:28.774Z,98659.56
2019-01-18T20:34:19.294Z,98669.40
2019-01-18T20:37:11.765Z,98664.76
2019-01-18T20:40:02.349Z,98655.38
2019-01-18T20:42:52.896Z,98659.64
2019-01-18T20:45:45.403Z,98663.08
2019-01-18T20:48:35.949Z,98658.40
2019-01-18T20:51:28.428Z,98666.09
2019-01-18T20:54:20.896Z,98659.33
2019-01-18T20:57:13.398Z,98661.42
2019-01-18T21:00:05.867Z,98662.29
2019-01-18T21:02:56.425Z,98659.85
2019-01-18T21:05:48.904Z,98662.92
2019-01-18T21:08:39.444Z,98665.03
2019-01-18T21:11:30.026Z,98659.11
2019-01-18T21:14:22.494Z,98657.87
2019-01-18T21:17:13.075Z,98658.73
2019-01-18T21:20:05.497Z,98659.55
2019-01-18T21:22:57.988Z,98660.31
2019-01-18T21:25:48.551Z,98662.05
2019-01-18T21:28:41.976Z,98657.81
2019-01-18T21:31:34.413Z,98665.88
2019-01-18T21:34:24.972Z,98665.88
2019-01-18T21:37:17.453Z,98660.34
2019-01-18T21:40:09.892Z,98658.69
2019-01-18T21:43:00.531Z,98663.43
2019-01-18T21:45:51.081Z,98663.43
2019-01-18T21:48:43.559Z,98664.71
2019-01-18T21:51:34.096Z,98662.62
2019-01-18T21:54:24.655Z,98668.05
2019-01-18T21:57:15.232Z,98668.87
2019-01-18T22:00:07.693Z,98670.50
2019-01-18T22:03:00.318Z,98669.68
2019-01-18T22:05:52.816Z,98675.30
2019-01-18T22:08:43.384Z,98671.16
2019-01-18T22:11:35.840Z,98672.97
2019-01-18T22:14:28.302Z,98677.24
2019-01-18T22:17:20.746Z,98675.21
2019-01-18T22:20:11.341Z,98683.22
2019-01-18T22:23:03.840Z,98678.09
2019-01-18T22:25:56.287Z,98680.77
2019-01-18T22:28:48.756Z,98679.04
2019-01-18T22:31:41.222Z,98682.50
2019-01-18T22:34:33.687Z,98682.44
2019-01-18T22:37:26.128Z,98678.61
2019-01-18T22:40:18.590Z,98677.74
2019-01-18T22:43:09.138Z,98675.65
2019-01-18T22:45:59.702Z,98673.53
2019-01-18T22:48:50.251Z,98676.49
2019-01-18T22:51:42.742Z,98673.98
2019-01-18T22:54:33.293Z,98668.06
2019-01-18T22:57:25.807Z,98668.92
2019-01-18T23:00:18.278Z,98671.91
2019-01-18T23:03:10.734Z,98670.24
2019-01-18T23:06:01.289Z,98664.25
2019-01-18T23:08:51.939Z,98665.88
2019-01-18T23:11:44.391Z,98667.56
2019-01-18T23:14:34.930Z,98655.66
2019-01-18T23:17:25.495Z,98659.09
2019-01-18T23:20:16.037Z,98651.08
2019-01-18T23:23:06.782Z,98650.23
2019-01-18T23:25:39.342Z,98649.39
2019-01-18T23:28:29.908Z,98648.10
2019-01-18T23:31:22.357Z,98643.47
2019-01-18T23:34:17.613Z,98643.51
2019-01-18T23:37:10.097Z,98640.91
2019-01-18T23:40:02.563Z,98634.95
2019-01-18T23:42:54.998Z,98631.58
2019-01-18T23:45:45.586Z,98632.87
2019-01-18T23:48:36.143Z,98634.15
2019-01-18T23:51:28.570Z,98634.14
2019-01-18T23:54:21.051Z,98632.87
2019-01-18T23:57:13.519Z,98629.06
